createdAt,value
2023-09-06T00:02:00.725Z,101670.47
2023-09-06T00:04:27.835Z,101670.53
2023-09-06T00:06:55.031Z,101668.81
2023-09-06T00:09:22.140Z,101667.06
2023-09-06T00:11:49.384Z,101667.97
2023-09-06T00:14:16.822Z,101669.84
2023-09-06T00:16:48.129Z,101672.53
2023-09-06T00:19:18.797Z,101669.03
2023-09-06T00:21:46.000Z,101664.66
2023-09-06T00:24:13.743Z,101674.50
2023-09-06T00:26:44.981Z,101671.81
2023-09-06T00:29:11.960Z,101668.31
2023-09-06T00:31:39.020Z,101668.41
2023-09-06T00:34:06.207Z,101663.09
2023-09-06T00:36:34.759Z,101662.25
2023-09-06T00:39:03.412Z,101656.97
2023-09-06T00:41:30.680Z,101667.72
2023-09-06T00:43:57.940Z,101673.06
2023-09-06T00:46:28.158Z,101672.28
2023-09-06T00:48:56.358Z,101672.34
2023-09-06T00:51:24.041Z,101675.06
2023-09-06T00:53:51.249Z,101673.34
2023-09-06T00:56:18.640Z,101682.25
2023-09-06T00:58:47.288Z,101677.81
2023-09-06T01:01:14.742Z,101672.56
2023-09-06T01:03:42.172Z,101675.31
2023-09-06T01:06:18.105Z,101680.66
2023-09-06T01:08:56.614Z,101678.88
2023-09-06T01:11:28.496Z,101681.59
2023-09-06T01:14:00.704Z,101678.09
2023-09-06T01:16:38.859Z,101680.81
2023-09-06T01:19:08.471Z,101673.75
2023-09-06T01:21:51.597Z,101672.91
2023-09-06T01:24:19.490Z,101670.31
2023-09-06T01:26:46.982Z,101672.97
2023-09-06T01:29:14.121Z,101667.72
2023-09-06T01:31:41.317Z,101673.97
2023-09-06T01:34:08.447Z,101680.22
2023-09-06T01:36:35.624Z,101684.66
2023-09-06T01:39:02.693Z,101690.03
2023-09-06T01:41:29.721Z,101683.00
2023-09-06T01:43:56.820Z,101685.69
2023-09-06T01:46:26.778Z,101686.59
2023-09-06T01:48:54.161Z,101687.53
2023-09-06T01:51:21.307Z,101689.34
2023-09-06T01:53:48.398Z,101690.31
2023-09-06T01:56:15.423Z,101685.06
2023-09-06T01:58:42.522Z,101692.16
2023-09-06T02:01:11.069Z,101696.63
2023-09-06T02:03:38.781Z,101695.84
2023-09-06T02:06:06.015Z,101705.66
2023-09-06T02:08:33.554Z,101695.94
2023-09-06T02:11:00.717Z,101699.53
2023-09-06T02:13:27.779Z,101699.53
2023-09-06T02:15:55.097Z,101696.03
2023-09-06T02:18:22.217Z,101696.97
2023-09-06T02:20:51.312Z,101697.00
2023-09-06T02:23:18.376Z,101696.16
2023-09-06T02:25:46.682Z,101693.56
2023-09-06T02:28:15.694Z,101691.84
2023-09-06T02:30:43.001Z,101691.91
2023-09-06T02:33:13.285Z,101685.72
2023-09-06T02:35:45.121Z,101691.94
2023-09-06T02:38:14.646Z,101700.88
2023-09-06T02:40:42.152Z,101694.69
2023-09-06T02:43:12.155Z,101699.13
2023-09-06T02:45:39.750Z,101697.38
2023-09-06T02:48:17.043Z,101693.88
2023-09-06T02:50:46.320Z,101694.78
2023-09-06T02:53:21.481Z,101695.69
2023-09-06T02:55:53.754Z,101693.94
2023-09-06T02:58:28.068Z,101698.44
2023-09-06T03:01:00.460Z,101696.72
2023-09-06T03:03:28.654Z,101699.38
2023-09-06T03:06:05.310Z,101695.88
2023-09-06T03:08:33.200Z,101705.63
2023-09-06T03:11:00.814Z,101695.00
2023-09-06T03:13:29.237Z,101697.72
2023-09-06T03:15:56.479Z,101702.19
2023-09-06T03:18:23.922Z,101697.78
2023-09-06T03:20:56.452Z,101697.84
2023-09-06T03:23:25.495Z,101701.44
2023-09-06T03:25:59.274Z,101704.06
2023-09-06T03:28:27.942Z,101706.78
2023-09-06T03:31:00.545Z,101704.19
2023-09-06T03:33:32.071Z,101705.97
2023-09-06T03:35:59.218Z,101714.88
2023-09-06T03:38:30.095Z,101714.00
2023-09-06T03:41:03.452Z,101706.06
2023-09-06T03:43:33.596Z,101711.44
2023-09-06T03:46:08.505Z,101710.56
2023-09-06T03:48:36.984Z,101707.91
2023-09-06T03:51:05.278Z,101719.44
2023-09-06T03:53:33.226Z,101715.06
2023-09-06T03:56:01.714Z,101716.88
2023-09-06T03:58:30.204Z,101716.88
2023-09-06T04:00:57.847Z,101717.78
2023-09-06T04:03:27.735Z,101722.25
2023-09-06T04:05:56.179Z,101724.03
2023-09-06T04:08:26.729Z,101724.06
2023-09-06T04:10:54.083Z,101727.63
2023-09-06T04:13:21.109Z,101726.78
2023-09-06T04:15:48.340Z,101725.00
2023-09-06T04:18:15.455Z,101731.22
2023-09-06T04:20:47.641Z,101728.59
2023-09-06T04:23:15.377Z,101731.25
2023-09-06T04:25:46.256Z,101731.31
2023-09-06T04:28:18.060Z,101737.50
2023-09-06T04:30:49.287Z,101736.63
2023-09-06T04:33:17.023Z,101738.44
2023-09-06T04:35:50.132Z,101737.53
2023-09-06T04:38:20.324Z,101737.56
2023-09-06T04:40:48.833Z,101745.53
2023-09-06T04:43:20.564Z,101742.00
2023-09-06T04:45:50.936Z,101751.75
2023-09-06T04:48:18.576Z,101751.75
2023-09-06T04:50:47.542Z,101748.22
2023-09-06T04:53:18.940Z,101751.75
2023-09-06T04:55:48.502Z,101747.34
2023-09-06T04:58:15.801Z,101753.53
2023-09-06T05:00:49.051Z,101757.97
2023-09-06T05:03:19.225Z,101759.75
2023-09-06T05:05:48.484Z,101767.69
2023-09-06T05:08:16.309Z,101762.38
2023-09-06T05:10:43.452Z,101766.78
2023-09-06T05:13:12.798Z,101765.00
2023-09-06T05:15:40.383Z,101764.97
2023-09-06T05:18:11.641Z,101767.59
2023-09-06T05:20:41.137Z,101768.50
2023-09-06T05:23:14.080Z,101767.56
2023-09-06T05:25:42.858Z,101771.09
2023-09-06T05:28:13.649Z,101763.97
2023-09-06T05:30:41.769Z,101774.59
2023-09-06T05:33:09.948Z,101767.50
2023-09-06T05:35:42.423Z,101770.97
2023-09-06T05:38:10.644Z,101772.72
2023-09-06T05:40:38.475Z,101782.41
2023-09-06T05:43:05.583Z,101783.28
2023-09-06T05:45:32.797Z,101783.25
2023-09-06T05:48:00.015Z,101779.63
2023-09-06T05:50:29.235Z,101778.69
2023-09-06T05:52:56.400Z,101788.38
2023-09-06T05:55:23.561Z,101782.97
2023-09-06T05:57:50.611Z,101788.22
2023-09-06T06:00:18.502Z,101788.09
2023-09-06T06:02:50.408Z,101793.38
2023-09-06T06:05:19.833Z,101787.13
2023-09-06T06:07:47.449Z,101787.03
2023-09-06T06:10:15.103Z,101782.53
2023-09-06T06:12:42.924Z,101789.53
2023-09-06T06:15:14.834Z,101794.78
2023-09-06T06:17:43.499Z,101796.41
2023-09-06T06:20:13.185Z,101793.66
2023-09-06T06:22:41.450Z,101785.59
2023-09-06T06:25:11.571Z,101797.00
2023-09-06T06:27:40.264Z,101796.00
2023-09-06T06:30:09.236Z,101798.56
2023-09-06T06:32:37.001Z,101792.22
2023-09-06T06:35:07.605Z,101801.84
2023-09-06T06:37:35.695Z,101801.78
2023-09-06T06:40:03.891Z,101803.41
2023-09-06T06:42:35.071Z,101806.84
2023-09-06T06:45:04.648Z,101805.78
2023-09-06T06:47:31.835Z,101804.75
2023-09-06T06:50:04.422Z,101815.25
2023-09-06T06:52:32.219Z,101816.00
2023-09-06T06:54:59.289Z,101815.81
2023-09-06T06:57:26.356Z,101813.00
2023-09-06T06:59:53.416Z,101803.94
2023-09-06T07:02:20.556Z,101819.84
2023-09-06T07:04:48.781Z,101819.66
2023-09-06T07:07:15.851Z,101823.00
2023-09-06T07:09:42.928Z,101813.06
2023-09-06T07:12:10.059Z,101812.78
2023-09-06T07:14:37.152Z,101805.47
2023-09-06T07:17:04.562Z,101817.69
2023-09-06T07:19:31.977Z,101808.59
2023-09-06T07:22:00.624Z,101807.47
2023-09-06T07:24:28.282Z,101804.53
2023-09-06T07:26:55.403Z,101806.94
2023-09-06T07:29:23.348Z,101809.25
2023-09-06T07:31:50.425Z,101811.66
2023-09-06T07:34:17.524Z,101811.31
2023-09-06T07:36:44.909Z,101811.91
2023-09-06T07:39:12.146Z,101821.38
2023-09-06T07:41:42.018Z,101815.81
2023-09-06T07:44:10.999Z,101815.50
2023-09-06T07:46:39.346Z,101817.00
2023-09-06T07:49:06.553Z,101815.75
2023-09-06T07:51:33.789Z,101827.91
2023-09-06T07:54:00.982Z,101826.72
2023-09-06T07:56:28.295Z,101815.69
2023-09-06T07:58:56.341Z,101812.69
2023-09-06T08:01:23.684Z,101816.75
2023-09-06T08:03:50.912Z,101805.69
2023-09-06T08:06:18.601Z,101809.94
2023-09-06T08:08:45.983Z,101814.03
2023-09-06T08:11:13.452Z,101816.31
2023-09-06T08:13:43.000Z,101816.72
2023-09-06T08:16:13.297Z,101823.50
2023-09-06T08:18:41.666Z,101823.19
2023-09-06T08:21:09.288Z,101817.50
2023-09-06T08:23:36.423Z,101819.84
2023-09-06T08:26:05.151Z,101823.97
2023-09-06T08:28:32.501Z,101820.03
2023-09-06T08:31:00.695Z,101816.09
2023-09-06T08:33:27.945Z,101822.09
2023-09-06T08:35:55.163Z,101822.69
2023-09-06T08:38:22.326Z,101817.94
2023-09-06T08:40:49.431Z,101818.44
2023-09-06T08:43:19.591Z,101819.91
2023-09-06T08:45:49.913Z,101812.38
2023-09-06T08:48:17.774Z,101817.41
2023-09-06T08:50:46.855Z,101820.66
2023-09-06T08:53:19.297Z,101823.97
2023-09-06T08:55:47.534Z,101821.84
2023-09-06T08:58:14.630Z,101826.84
2023-09-06T09:00:44.074Z,101818.41
2023-09-06T09:03:11.271Z,101819.84
2023-09-06T09:05:38.567Z,101825.72
2023-09-06T09:08:05.846Z,101826.34
2023-09-06T09:10:34.438Z,101812.66
2023-09-06T09:13:02.641Z,101815.97
2023-09-06T09:15:34.994Z,101815.66
2023-09-06T09:18:21.107Z,101818.91
2023-09-06T09:20:50.950Z,101823.84
2023-09-06T09:23:18.095Z,101830.72
2023-09-06T09:25:52.395Z,101825.97
2023-09-06T09:28:19.711Z,101826.53
2023-09-06T09:30:48.131Z,101830.78
2023-09-06T09:33:15.812Z,101823.31
2023-09-06T09:35:44.361Z,101826.72
2023-09-06T09:38:14.565Z,101813.97
2023-09-06T09:40:52.846Z,101825.44
2023-09-06T09:43:25.033Z,101825.19
2023-09-06T09:45:52.110Z,101818.59
2023-09-06T09:48:21.139Z,101820.94
2023-09-06T09:50:52.987Z,101815.31
2023-09-06T09:53:26.250Z,101812.28
2023-09-06T09:55:56.412Z,101811.03
2023-09-06T09:58:25.783Z,101811.56
2023-09-06T10:00:54.898Z,101812.19
2023-09-06T10:03:24.298Z,101812.88
2023-09-06T10:05:53.977Z,101808.25
2023-09-06T10:08:22.821Z,101807.72
2023-09-06T10:10:52.348Z,101809.38
2023-09-06T10:13:19.680Z,101813.63
2023-09-06T10:15:47.854Z,101806.09
2023-09-06T10:18:15.215Z,101809.34
2023-09-06T10:20:44.032Z,101803.59
2023-09-06T10:23:14.034Z,101811.47
2023-09-06T10:25:42.770Z,101799.41
2023-09-06T10:28:10.219Z,101810.66
2023-09-06T10:30:47.118Z,101807.59
2023-09-06T10:33:37.039Z,101810.97
2023-09-06T10:36:10.640Z,101807.16
2023-09-06T10:38:56.815Z,101811.38
2023-09-06T10:41:28.015Z,101808.44
2023-09-06T10:44:02.721Z,101805.25
2023-09-06T10:46:37.484Z,101805.75
2023-09-06T10:49:21.478Z,101807.31
2023-09-06T10:52:12.302Z,101804.38
2023-09-06T10:54:45.360Z,101798.81
2023-09-06T10:57:15.310Z,101798.56
2023-09-06T10:59:58.291Z,101795.69
2023-09-06T11:02:31.803Z,101802.69
2023-09-06T11:05:17.337Z,101791.72
2023-09-06T11:07:50.704Z,101788.72
2023-09-06T11:10:24.950Z,101794.50
2023-09-06T11:12:55.953Z,101794.97
2023-09-06T11:15:25.155Z,101798.97
2023-09-06T11:17:58.657Z,101790.38
2023-09-06T11:20:25.932Z,101797.31
2023-09-06T11:22:57.250Z,101797.09
2023-09-06T11:25:27.606Z,101793.22
2023-09-06T11:27:57.636Z,101790.28
2023-09-06T11:30:25.303Z,101781.22
2023-09-06T11:32:57.360Z,101792.72
2023-09-06T11:35:36.218Z,101794.63
2023-09-06T11:38:04.326Z,101784.69
2023-09-06T11:40:35.958Z,101787.25
2023-09-06T11:43:06.442Z,101785.16
2023-09-06T11:45:34.397Z,101783.09
2023-09-06T11:48:12.299Z,101790.00
2023-09-06T11:50:41.850Z,101785.16
2023-09-06T11:53:11.696Z,101783.06
2023-09-06T11:55:42.885Z,101786.38
2023-09-06T11:58:19.786Z,101780.91
2023-09-06T12:00:52.347Z,101784.28
2023-09-06T12:03:23.335Z,101788.06
2023-09-06T12:05:55.547Z,101787.00
2023-09-06T12:08:25.020Z,101781.38
2023-09-06T12:11:07.670Z,101777.38
2023-09-06T12:13:39.492Z,101776.25
2023-09-06T12:16:09.623Z,101769.56
2023-09-06T12:18:38.796Z,101773.09
2023-09-06T12:21:07.571Z,101768.44
2023-09-06T12:23:38.301Z,101769.06
2023-09-06T12:26:07.083Z,101765.22
2023-09-06T12:28:34.869Z,101761.44
2023-09-06T12:31:16.445Z,101762.16
2023-09-06T12:33:50.947Z,101758.38
2023-09-06T12:36:19.617Z,101763.59
2023-09-06T12:38:47.384Z,101764.28
2023-09-06T12:41:14.961Z,101753.47
2023-09-06T12:43:42.022Z,101754.25
2023-09-06T12:46:09.392Z,101751.22
2023-09-06T12:48:37.114Z,101749.13
2023-09-06T12:51:07.185Z,101746.22
2023-09-06T12:53:35.224Z,101747.13
2023-09-06T12:56:02.451Z,101738.78
2023-09-06T12:58:29.805Z,101740.53
2023-09-06T13:00:58.902Z,101742.00
2023-09-06T13:03:26.493Z,101744.59
2023-09-06T13:05:53.755Z,101742.66
2023-09-06T13:08:21.355Z,101733.56
2023-09-06T13:10:49.047Z,101738.63
2023-09-06T13:13:16.400Z,101740.97
2023-09-06T13:15:43.519Z,101741.53
2023-09-06T13:18:10.912Z,101744.06
2023-09-06T13:20:38.360Z,101731.28
2023-09-06T13:23:06.368Z,101740.94
2023-09-06T13:25:37.177Z,101730.81
2023-09-06T13:28:06.212Z,101731.69
2023-09-06T13:30:33.752Z,101725.94
2023-09-06T13:33:01.036Z,101730.13
2023-09-06T13:35:28.275Z,101725.47
2023-09-06T13:37:55.358Z,101723.53
2023-09-06T13:40:23.224Z,101724.31
2023-09-06T13:42:50.627Z,101724.19
2023-09-06T13:45:18.944Z,101723.91
2023-09-06T13:47:46.164Z,101712.00
2023-09-06T13:50:13.281Z,101707.34
2023-09-06T13:52:40.418Z,101710.03
2023-09-06T13:55:08.147Z,101706.47
2023-09-06T13:57:35.376Z,101708.31
2023-09-06T14:00:06.674Z,101719.81
2023-09-06T14:02:36.358Z,101704.53
2023-09-06T14:05:04.993Z,101705.28
2023-09-06T14:07:32.345Z,101706.84
2023-09-06T14:09:59.807Z,101699.56
2023-09-06T14:12:27.998Z,101708.56
2023-09-06T14:14:58.156Z,101705.84
2023-09-06T14:17:25.560Z,101703.16
2023-09-06T14:19:53.035Z,101695.81
2023-09-06T14:22:20.700Z,101698.44
2023-09-06T14:24:47.980Z,101699.22
2023-09-06T14:27:17.274Z,101707.34
2023-09-06T14:29:44.563Z,101696.50
2023-09-06T14:32:13.108Z,101706.47
2023-09-06T14:34:40.924Z,101703.75
2023-09-06T14:37:08.072Z,101708.09
2023-09-06T14:39:35.339Z,101697.38
2023-09-06T14:42:02.777Z,101701.91
2023-09-06T14:44:30.079Z,101693.69
2023-09-06T14:46:57.622Z,101698.34
2023-09-06T14:49:25.178Z,101693.97
2023-09-06T14:51:52.545Z,101692.41
2023-09-06T14:54:19.787Z,101689.81
2023-09-06T14:56:47.012Z,101689.00
2023-09-06T14:59:14.072Z,101685.53
2023-09-06T15:01:41.322Z,101685.66
2023-09-06T15:04:08.813Z,101684.03
2023-09-06T15:06:52.494Z,101687.69
2023-09-06T15:09:24.383Z,101686.91
2023-09-06T15:11:53.244Z,101688.00
2023-09-06T15:14:20.810Z,101686.47
2023-09-06T15:16:49.020Z,101678.50
2023-09-06T15:19:16.244Z,101690.44
2023-09-06T15:21:44.507Z,101685.28
2023-09-06T15:24:12.038Z,101683.88
2023-09-06T15:26:39.318Z,101681.34
2023-09-06T15:29:06.851Z,101677.88
2023-09-06T15:31:34.228Z,101684.25
2023-09-06T15:34:01.680Z,101678.94
2023-09-06T15:36:31.653Z,101678.19
2023-09-06T15:38:59.293Z,101675.53
2023-09-06T15:41:33.070Z,101684.66
2023-09-06T15:44:04.686Z,101678.47
2023-09-06T15:46:32.564Z,101677.50
2023-09-06T15:48:59.762Z,101670.34
2023-09-06T15:51:27.134Z,101672.19
2023-09-06T15:53:54.517Z,101668.81
2023-09-06T15:56:21.681Z,101670.78
2023-09-06T15:58:49.056Z,101678.03
2023-09-06T16:01:17.540Z,101672.13
2023-09-06T16:03:45.079Z,101669.63
2023-09-06T16:06:12.463Z,101672.56
2023-09-06T16:08:39.970Z,101666.53
2023-09-06T16:11:07.240Z,101688.31
2023-09-06T16:13:34.749Z,101676.59
2023-09-06T16:16:01.941Z,101669.53
2023-09-06T16:18:29.951Z,101666.16
2023-09-06T16:20:57.289Z,101674.47
2023-09-06T16:23:24.560Z,101674.66
2023-09-06T16:25:51.908Z,101667.69
2023-09-06T16:28:19.623Z,101669.66
2023-09-06T16:30:46.957Z,101663.53
2023-09-06T16:33:14.169Z,101667.47
2023-09-06T16:35:41.585Z,101666.81
2023-09-06T16:38:09.104Z,101665.06
2023-09-06T16:40:36.884Z,101657.22
2023-09-06T16:43:04.239Z,101652.06
2023-09-06T16:45:31.463Z,101661.50
2023-09-06T16:47:58.509Z,101660.31
2023-09-06T16:50:25.690Z,101658.41
2023-09-06T16:52:52.979Z,101652.09
2023-09-06T16:55:20.599Z,101657.91
2023-09-06T16:57:47.931Z,101652.25
2023-09-06T17:00:15.717Z,101656.13
2023-09-06T17:02:43.033Z,101654.75
2023-09-06T17:05:11.512Z,101667.22
2023-09-06T17:07:39.174Z,101661.91
2023-09-06T17:10:09.580Z,101668.84
2023-09-06T17:12:38.074Z,101661.03
2023-09-06T17:15:19.768Z,101660.69
2023-09-06T17:17:48.750Z,101656.59
2023-09-06T17:20:18.524Z,101652.91
2023-09-06T17:22:46.805Z,101660.31
2023-09-06T17:25:14.490Z,101655.06
2023-09-06T17:27:43.616Z,101653.22
2023-09-06T17:30:20.402Z,101653.00
2023-09-06T17:33:15.934Z,101641.00
2023-09-06T17:35:46.237Z,101641.66
2023-09-06T17:38:15.876Z,101637.50
2023-09-06T17:40:46.556Z,101638.56
2023-09-06T17:43:15.646Z,101632.47
2023-09-06T17:45:44.052Z,101633.63
2023-09-06T17:48:11.935Z,101629.03
2023-09-06T17:50:51.094Z,101629.09
2023-09-06T17:53:21.436Z,101626.47
2023-09-06T17:55:51.428Z,101631.03
2023-09-06T17:58:19.129Z,101629.13
2023-09-06T18:00:49.418Z,101629.06
2023-09-06T18:03:19.293Z,101627.19
2023-09-06T18:05:55.226Z,101619.88
2023-09-06T18:08:25.158Z,101632.19
2023-09-06T18:10:52.838Z,101632.00
2023-09-06T18:13:20.945Z,101631.75
2023-09-06T18:15:50.347Z,101642.25
2023-09-06T18:18:18.095Z,101642.06
2023-09-06T18:20:47.314Z,101644.28
2023-09-06T18:23:15.123Z,101636.78
2023-09-06T18:25:42.526Z,101642.69
2023-09-06T18:28:10.558Z,101635.13
2023-09-06T18:30:39.005Z,101641.03
2023-09-06T18:33:08.764Z,101644.38
2023-09-06T18:35:36.392Z,101649.31
2023-09-06T18:38:03.741Z,101651.63
2023-09-06T18:40:30.912Z,101651.22
2023-09-06T18:43:00.603Z,101652.47
2023-09-06T18:45:27.931Z,101651.00
2023-09-06T18:47:57.074Z,101664.84
2023-09-06T18:50:25.681Z,101662.41
2023-09-06T18:52:55.013Z,101662.72
2023-09-06T18:55:22.269Z,101664.81
2023-09-06T18:58:04.809Z,101668.75
2023-09-06T19:00:36.056Z,101662.91
2023-09-06T19:03:06.992Z,101666.75
2023-09-06T19:05:37.793Z,101673.31
2023-09-06T19:08:05.725Z,101677.09
2023-09-06T19:10:35.347Z,101673.84
2023-09-06T19:13:04.881Z,101682.97
2023-09-06T19:15:32.783Z,101679.63
2023-09-06T19:18:00.023Z,101687.88
2023-09-06T19:20:27.377Z,101680.91
2023-09-06T19:22:57.411Z,101686.44
2023-09-06T19:25:28.821Z,101687.66
2023-09-06T19:27:55.972Z,101688.78
2023-09-06T19:30:23.185Z,101690.88
2023-09-06T19:32:50.405Z,101689.22
2023-09-06T19:35:17.653Z,101697.50
2023-09-06T19:37:45.334Z,101693.31
2023-09-06T19:40:12.907Z,101698.88
2023-09-06T19:42:40.317Z,101698.16
2023-09-06T19:45:10.231Z,101695.72
2023-09-06T19:47:40.686Z,101702.16
2023-09-06T19:50:08.539Z,101695.19
2023-09-06T19:52:35.664Z,101695.28
2023-09-06T19:55:03.695Z,101696.34
2023-09-06T19:57:31.206Z,101688.50
2023-09-06T19:59:58.825Z,101697.53
2023-09-06T20:02:26.218Z,101698.59
2023-09-06T20:04:53.745Z,101700.59
2023-09-06T20:07:21.453Z,101697.16
2023-09-06T20:09:49.012Z,101707.16
2023-09-06T20:12:16.118Z,101697.50
2023-09-06T20:14:43.319Z,101695.91
2023-09-06T20:17:10.541Z,101698.69
2023-09-06T20:19:37.666Z,101702.41
2023-09-06T20:22:04.885Z,101697.16
2023-09-06T20:24:32.246Z,101701.72
2023-09-06T20:26:59.439Z,101706.31
2023-09-06T20:29:31.285Z,101706.44
2023-09-06T20:31:58.840Z,101703.88
2023-09-06T20:34:26.930Z,101704.81
2023-09-06T20:36:54.130Z,101703.13
2023-09-06T20:39:21.354Z,101703.19
2023-09-06T20:41:48.765Z,101721.16
2023-09-06T20:44:15.922Z,101715.03
2023-09-06T20:46:43.283Z,101709.75
2023-09-06T20:49:13.016Z,101710.72
2023-09-06T20:51:40.286Z,101719.72
2023-09-06T20:54:07.644Z,101718.06
2023-09-06T20:56:35.030Z,101719.97
2023-09-06T20:59:02.116Z,101715.72
2023-09-06T21:01:29.402Z,101706.94
2023-09-06T21:03:57.404Z,101713.25
2023-09-06T21:06:24.852Z,101717.84
2023-09-06T21:08:52.097Z,101708.13
2023-09-06T21:11:22.220Z,101720.78
2023-09-06T21:13:51.145Z,101724.44
2023-09-06T21:16:18.778Z,101736.19
2023-09-06T21:18:46.536Z,101725.59
2023-09-06T21:21:14.140Z,101734.66
2023-09-06T21:23:41.308Z,101735.59
2023-09-06T21:26:11.570Z,101733.09
2023-09-06T21:28:38.727Z,101737.59
2023-09-06T21:31:05.836Z,101736.88
2023-09-06T21:33:33.409Z,101741.41
2023-09-06T21:36:00.974Z,101736.22
2023-09-06T21:38:29.387Z,101731.84
2023-09-06T21:40:57.957Z,101740.84
2023-09-06T21:43:25.869Z,101753.38
2023-09-06T21:45:54.686Z,101745.50
2023-09-06T21:48:22.650Z,101750.03
2023-09-06T21:51:07.371Z,101759.94
2023-09-06T21:53:35.962Z,101754.75
2023-09-06T21:56:03.304Z,101754.84
2023-09-06T21:58:34.685Z,101762.91
2023-09-06T22:01:03.073Z,101761.19
2023-09-06T22:03:30.930Z,101763.13
2023-09-06T22:05:58.560Z,101759.69
2023-09-06T22:08:25.784Z,101758.00
2023-09-06T22:10:52.843Z,101756.31
2023-09-06T22:13:20.057Z,101751.97
2023-09-06T22:15:47.476Z,101745.84
2023-09-06T22:18:14.664Z,101753.03
2023-09-06T22:20:42.628Z,101747.75
2023-09-06T22:23:10.228Z,101749.63
2023-09-06T22:25:37.894Z,101755.06
2023-09-06T22:28:07.666Z,101753.41
2023-09-06T22:30:39.974Z,101755.28
2023-09-06T22:33:07.572Z,101750.03
2023-09-06T22:35:34.667Z,101753.66
2023-09-06T22:38:02.233Z,101752.88
2023-09-06T22:40:29.481Z,101751.16
2023-09-06T22:42:56.578Z,101753.91
2023-09-06T22:45:23.716Z,101747.78
2023-09-06T22:47:50.910Z,101741.63
2023-09-06T22:50:18.441Z,101742.59
2023-09-06T22:52:45.543Z,101745.31
2023-09-06T22:55:12.859Z,101740.09
2023-09-06T22:57:40.130Z,101746.41
2023-09-06T23:00:09.033Z,101741.13
2023-09-06T23:02:36.515Z,101741.22
2023-09-06T23:05:05.081Z,101737.78
2023-09-06T23:07:33.503Z,101735.16
2023-09-06T23:10:02.062Z,101739.66
2023-09-06T23:12:29.538Z,101732.63
2023-09-06T23:14:57.953Z,101744.25
2023-09-06T23:17:28.753Z,101737.19
2023-09-06T23:19:59.825Z,101739.94
2023-09-06T23:22:30.251Z,101741.75
2023-09-06T23:24:57.508Z,101732.97
2023-09-06T23:27:26.445Z,101729.41
2023-09-06T23:29:58.992Z,101737.50
2023-09-06T23:32:28.042Z,101732.22
2023-09-06T23:34:55.619Z,101737.59
2023-09-06T23:37:23.177Z,101728.75
2023-09-06T23:39:51.034Z,101726.22
2023-09-06T23:42:20.790Z,101727.16
2023-09-06T23:44:48.307Z,101722.78
2023-09-06T23:47:16.061Z,101721.06
2023-09-06T23:49:46.661Z,101723.75
2023-09-06T23:52:14.472Z,101722.94
2023-09-06T23:54:48.081Z,101722.06
2023-09-06T23:57:19.305Z,101720.38
2023-09-06T23:59:47.779Z,101715.13
